sensor_id;sensor_type;location;lat;lon;timestamp;P1;durP1;ratioP1;P2;durP2;ratioP2
81936;SDS011;71432;56.558;9.036;2024-01-06T00:02:17;34.60;;;12.17;;
81936;SDS011;71432;56.558;9.036;2024-01-06T00:04:42;31.50;;;12.25;;
81936;SDS011;71432;56.558;9.036;2024-01-06T00:07:07;32.40;;;11.68;;
81936;SDS011;71432;56.558;9.036;2024-01-06T00:09:33;29.48;;;12.05;;
81936;SDS011;71432;56.558;9.036;2024-01-06T00:11:58;26.10;;;10.38;;
81936;SDS011;71432;56.558;9.036;2024-01-06T00:14:23;28.90;;;10.83;;
81936;SDS011;71432;56.558;9.036;2024-01-06T00:16:49;28.83;;;10.88;;
81936;SDS011;71432;56.558;9.036;2024-01-06T00:19:14;34.75;;;11.10;;
81936;SDS011;71432;56.558;9.036;2024-01-06T00:21:41;22.92;;;9.10;;
81936;SDS011;71432;56.558;9.036;2024-01-06T00:24:06;27.00;;;10.03;;
81936;SDS011;71432;56.558;9.036;2024-01-06T00:26:31;23.63;;;10.27;;
81936;SDS011;71432;56.558;9.036;2024-01-06T00:28:57;18.02;;;7.35;;
81936;SDS011;71432;56.558;9.036;2024-01-06T00:31:22;25.73;;;9.30;;
81936;SDS011;71432;56.558;9.036;2024-01-06T00:33:47;22.30;;;8.00;;
81936;SDS011;71432;56.558;9.036;2024-01-06T00:36:13;23.45;;;8.70;;
81936;SDS011;71432;56.558;9.036;2024-01-06T00:38:38;22.23;;;9.20;;
81936;SDS011;71432;56.558;9.036;2024-01-06T00:41:04;22.95;;;9.32;;
81936;SDS011;71432;56.558;9.036;2024-01-06T00:43:29;21.73;;;8.70;;
81936;SDS011;71432;56.558;9.036;2024-01-06T00:45:54;16.23;;;6.90;;
81936;SDS011;71432;56.558;9.036;2024-01-06T00:48:20;18.52;;;8.07;;
81936;SDS011;71432;56.558;9.036;2024-01-06T00:50:45;18.15;;;7.65;;
81936;SDS011;71432;56.558;9.036;2024-01-06T00:53:11;14.73;;;5.70;;
81936;SDS011;71432;56.558;9.036;2024-01-06T00:55:37;20.83;;;8.18;;
81936;SDS011;71432;56.558;9.036;2024-01-06T00:58:02;18.90;;;7.05;;
81936;SDS011;71432;56.558;9.036;2024-01-06T01:00:27;17.77;;;6.47;;
81936;SDS011;71432;56.558;9.036;2024-01-06T01:02:53;16.07;;;8.07;;
81936;SDS011;71432;56.558;9.036;2024-01-06T01:05:18;12.90;;;5.70;;
81936;SDS011;71432;56.558;9.036;2024-01-06T01:07:44;18.83;;;6.43;;
81936;SDS011;71432;56.558;9.036;2024-01-06T01:10:09;13.15;;;5.57;;
81936;SDS011;71432;56.558;9.036;2024-01-06T01:12:35;12.10;;;5.60;;
81936;SDS011;71432;56.558;9.036;2024-01-06T01:15:00;15.82;;;6.18;;
81936;SDS011;71432;56.558;9.036;2024-01-06T01:17:26;15.95;;;5.32;;
81936;SDS011;71432;56.558;9.036;2024-01-06T01:19:51;15.02;;;5.60;;
81936;SDS011;71432;56.558;9.036;2024-01-06T01:22:16;14.32;;;5.43;;
81936;SDS011;71432;56.558;9.036;2024-01-06T01:24:42;16.92;;;4.72;;
81936;SDS011;71432;56.558;9.036;2024-01-06T01:27:07;9.32;;;4.90;;
81936;SDS011;71432;56.558;9.036;2024-01-06T01:29:32;13.77;;;5.57;;
81936;SDS011;71432;56.558;9.036;2024-01-06T01:31:58;11.73;;;4.90;;
81936;SDS011;71432;56.558;9.036;2024-01-06T01:34:23;8.95;;;4.40;;
81936;SDS011;71432;56.558;9.036;2024-01-06T01:36:48;12.85;;;4.53;;
81936;SDS011;71432;56.558;9.036;2024-01-06T01:39:14;11.98;;;4.93;;
81936;SDS011;71432;56.558;9.036;2024-01-06T01:41:39;9.95;;;4.45;;
81936;SDS011;71432;56.558;9.036;2024-01-06T01:44:05;9.55;;;3.42;;
81936;SDS011;71432;56.558;9.036;2024-01-06T01:46:30;10.45;;;4.38;;
81936;SDS011;71432;56.558;9.036;2024-01-06T01:48:56;12.57;;;4.20;;
81936;SDS011;71432;56.558;9.036;2024-01-06T01:51:24;9.52;;;3.97;;
81936;SDS011;71432;56.558;9.036;2024-01-06T01:53:53;7.43;;;3.85;;
81936;SDS011;71432;56.558;9.036;2024-01-06T01:56:19;8.52;;;3.97;;
81936;SDS011;71432;56.558;9.036;2024-01-06T01:58:46;9.55;;;3.97;;
81936;SDS011;71432;56.558;9.036;2024-01-06T02:01:12;9.55;;;3.33;;
81936;SDS011;71432;56.558;9.036;2024-01-06T02:03:37;6.40;;;2.90;;
81936;SDS011;71432;56.558;9.036;2024-01-06T02:06:05;8.27;;;3.28;;
81936;SDS011;71432;56.558;9.036;2024-01-06T02:08:31;7.93;;;3.45;;
81936;SDS011;71432;56.558;9.036;2024-01-06T02:10:56;6.93;;;3.63;;
81936;SDS011;71432;56.558;9.036;2024-01-06T02:13:22;6.40;;;2.50;;
81936;SDS011;71432;56.558;9.036;2024-01-06T02:15:48;7.05;;;2.80;;
81936;SDS011;71432;56.558;9.036;2024-01-06T02:18:14;9.02;;;3.70;;
81936;SDS011;71432;56.558;9.036;2024-01-06T02:20:40;6.32;;;2.88;;
81936;SDS011;71432;56.558;9.036;2024-01-06T02:23:09;5.70;;;2.67;;
81936;SDS011;71432;56.558;9.036;2024-01-06T02:25:34;8.93;;;2.72;;
81936;SDS011;71432;56.558;9.036;2024-01-06T02:28:00;8.15;;;3.47;;
81936;SDS011;71432;56.558;9.036;2024-01-06T02:30:25;6.22;;;2.90;;
81936;SDS011;71432;56.558;9.036;2024-01-06T02:32:51;3.78;;;2.60;;
81936;SDS011;71432;56.558;9.036;2024-01-06T02:35:16;5.97;;;2.55;;
81936;SDS011;71432;56.558;9.036;2024-01-06T02:37:42;7.45;;;2.88;;
81936;SDS011;71432;56.558;9.036;2024-01-06T02:40:07;5.90;;;2.67;;
81936;SDS011;71432;56.558;9.036;2024-01-06T02:42:33;6.28;;;2.42;;
81936;SDS011;71432;56.558;9.036;2024-01-06T02:44:58;7.77;;;2.53;;
81936;SDS011;71432;56.558;9.036;2024-01-06T02:47:23;5.87;;;2.90;;
81936;SDS011;71432;56.558;9.036;2024-01-06T02:49:49;3.70;;;2.00;;
81936;SDS011;71432;56.558;9.036;2024-01-06T02:52:14;4.72;;;2.45;;
81936;SDS011;71432;56.558;9.036;2024-01-06T02:54:39;4.97;;;2.50;;
81936;SDS011;71432;56.558;9.036;2024-01-06T02:57:05;4.20;;;2.20;;
81936;SDS011;71432;56.558;9.036;2024-01-06T02:59:30;4.80;;;1.95;;
81936;SDS011;71432;56.558;9.036;2024-01-06T03:01:55;6.97;;;2.73;;
81936;SDS011;71432;56.558;9.036;2024-01-06T03:04:21;4.87;;;1.70;;
81936;SDS011;71432;56.558;9.036;2024-01-06T03:06:46;5.83;;;2.40;;
81936;SDS011;71432;56.558;9.036;2024-01-06T03:09:16;4.93;;;2.30;;
81936;SDS011;71432;56.558;9.036;2024-01-06T03:11:42;4.05;;;2.13;;
81936;SDS011;71432;56.558;9.036;2024-01-06T03:14:07;4.22;;;1.67;;
81936;SDS011;71432;56.558;9.036;2024-01-06T03:16:32;3.25;;;1.73;;
81936;SDS011;71432;56.558;9.036;2024-01-06T03:18:59;4.07;;;1.65;;
81936;SDS011;71432;56.558;9.036;2024-01-06T03:21:24;4.00;;;2.07;;
81936;SDS011;71432;56.558;9.036;2024-01-06T03:23:51;4.07;;;1.95;;
81936;SDS011;71432;56.558;9.036;2024-01-06T03:26:17;4.28;;;2.30;;
81936;SDS011;71432;56.558;9.036;2024-01-06T03:28:42;3.35;;;1.70;;
81936;SDS011;71432;56.558;9.036;2024-01-06T03:31:08;5.00;;;1.55;;
81936;SDS011;71432;56.558;9.036;2024-01-06T03:33:33;5.97;;;1.88;;
81936;SDS011;71432;56.558;9.036;2024-01-06T03:35:58;3.47;;;1.65;;
81936;SDS011;71432;56.558;9.036;2024-01-06T03:38:29;5.97;;;2.00;;
81936;SDS011;71432;56.558;9.036;2024-01-06T03:40:54;3.57;;;1.70;;
81936;SDS011;71432;56.558;9.036;2024-01-06T03:43:20;4.10;;;1.73;;
81936;SDS011;71432;56.558;9.036;2024-01-06T03:45:45;4.68;;;1.90;;
81936;SDS011;71432;56.558;9.036;2024-01-06T03:48:10;2.20;;;1.50;;
81936;SDS011;71432;56.558;9.036;2024-01-06T03:50:36;3.58;;;1.73;;
81936;SDS011;71432;56.558;9.036;2024-01-06T03:53:01;4.65;;;1.40;;
81936;SDS011;71432;56.558;9.036;2024-01-06T03:55:26;3.55;;;1.42;;
81936;SDS011;71432;56.558;9.036;2024-01-06T03:57:52;4.57;;;1.45;;
81936;SDS011;71432;56.558;9.036;2024-01-06T04:00:18;3.60;;;1.30;;
81936;SDS011;71432;56.558;9.036;2024-01-06T04:02:43;2.28;;;1.20;;
81936;SDS011;71432;56.558;9.036;2024-01-06T04:05:08;2.38;;;1.23;;
81936;SDS011;71432;56.558;9.036;2024-01-06T04:07:34;3.72;;;1.55;;
81936;SDS011;71432;56.558;9.036;2024-01-06T04:09:59;2.37;;;0.93;;
81936;SDS011;71432;56.558;9.036;2024-01-06T04:12:24;3.43;;;1.53;;
81936;SDS011;71432;56.558;9.036;2024-01-06T04:14:50;3.05;;;1.20;;
81936;SDS011;71432;56.558;9.036;2024-01-06T04:17:15;1.73;;;0.90;;
81936;SDS011;71432;56.558;9.036;2024-01-06T04:19:40;1.90;;;0.73;;
81936;SDS011;71432;56.558;9.036;2024-01-06T04:22:06;3.43;;;1.50;;
81936;SDS011;71432;56.558;9.036;2024-01-06T04:24:31;3.17;;;1.17;;
81936;SDS011;71432;56.558;9.036;2024-01-06T04:26:59;2.92;;;1.13;;
81936;SDS011;71432;56.558;9.036;2024-01-06T04:29:24;2.90;;;1.20;;
81936;SDS011;71432;56.558;9.036;2024-01-06T04:31:50;2.77;;;1.10;;
81936;SDS011;71432;56.558;9.036;2024-01-06T04:34:15;2.13;;;1.20;;
81936;SDS011;71432;56.558;9.036;2024-01-06T04:36:40;2.20;;;1.03;;
81936;SDS011;71432;56.558;9.036;2024-01-06T04:39:06;2.00;;;1.00;;
81936;SDS011;71432;56.558;9.036;2024-01-06T04:41:31;2.55;;;1.13;;
81936;SDS011;71432;56.558;9.036;2024-01-06T04:43:57;5.28;;;1.63;;
81936;SDS011;71432;56.558;9.036;2024-01-06T04:46:22;1.90;;;1.13;;
81936;SDS011;71432;56.558;9.036;2024-01-06T04:48:47;1.50;;;0.70;;
81936;SDS011;71432;56.558;9.036;2024-01-06T04:51:12;2.47;;;1.13;;
81936;SDS011;71432;56.558;9.036;2024-01-06T04:53:38;3.08;;;0.88;;
81936;SDS011;71432;56.558;9.036;2024-01-06T04:56:04;2.78;;;0.90;;
81936;SDS011;71432;56.558;9.036;2024-01-06T04:58:29;2.50;;;1.00;;
81936;SDS011;71432;56.558;9.036;2024-01-06T05:00:55;3.25;;;1.00;;
81936;SDS011;71432;56.558;9.036;2024-01-06T05:03:21;2.25;;;0.85;;
81936;SDS011;71432;56.558;9.036;2024-01-06T05:05:46;1.90;;;0.97;;
81936;SDS011;71432;56.558;9.036;2024-01-06T05:08:11;1.83;;;1.30;;
81936;SDS011;71432;56.558;9.036;2024-01-06T05:10:37;1.70;;;1.07;;
81936;SDS011;71432;56.558;9.036;2024-01-06T05:13:02;1.80;;;0.80;;
81936;SDS011;71432;56.558;9.036;2024-01-06T05:15:28;2.13;;;0.70;;
81936;SDS011;71432;56.558;9.036;2024-01-06T05:17:53;1.38;;;0.70;;
81936;SDS011;71432;56.558;9.036;2024-01-06T05:20:18;1.60;;;0.80;;
81936;SDS011;71432;56.558;9.036;2024-01-06T05:22:44;2.27;;;0.90;;
81936;SDS011;71432;56.558;9.036;2024-01-06T05:25:09;0.87;;;0.57;;
81936;SDS011;71432;56.558;9.036;2024-01-06T05:27:34;1.67;;;0.80;;
81936;SDS011;71432;56.558;9.036;2024-01-06T05:30:00;2.92;;;0.98;;
81936;SDS011;71432;56.558;9.036;2024-01-06T05:32:26;2.50;;;0.85;;
81936;SDS011;71432;56.558;9.036;2024-01-06T05:34:51;1.45;;;0.80;;
81936;SDS011;71432;56.558;9.036;2024-01-06T05:37:16;1.88;;;0.88;;
81936;SDS011;71432;56.558;9.036;2024-01-06T05:39:42;1.92;;;0.70;;
81936;SDS011;71432;56.558;9.036;2024-01-06T05:42:08;2.00;;;0.60;;
81936;SDS011;71432;56.558;9.036;2024-01-06T05:44:36;1.73;;;0.98;;
81936;SDS011;71432;56.558;9.036;2024-01-06T05:47:02;1.20;;;0.57;;
81936;SDS011;71432;56.558;9.036;2024-01-06T05:49:29;1.10;;;0.65;;
81936;SDS011;71432;56.558;9.036;2024-01-06T05:51:54;1.63;;;0.95;;
81936;SDS011;71432;56.558;9.036;2024-01-06T05:54:19;1.63;;;0.50;;
81936;SDS011;71432;56.558;9.036;2024-01-06T05:56:45;1.10;;;0.60;;
81936;SDS011;71432;56.558;9.036;2024-01-06T05:59:10;1.10;;;0.52;;
81936;SDS011;71432;56.558;9.036;2024-01-06T06:01:35;1.50;;;0.80;;
81936;SDS011;71432;56.558;9.036;2024-01-06T06:04:01;1.63;;;0.60;;
81936;SDS011;71432;56.558;9.036;2024-01-06T06:06:26;1.63;;;0.65;;
81936;SDS011;71432;56.558;9.036;2024-01-06T06:08:52;1.02;;;0.60;;
81936;SDS011;71432;56.558;9.036;2024-01-06T06:11:17;1.45;;;0.65;;
81936;SDS011;71432;56.558;9.036;2024-01-06T06:13:43;1.25;;;0.50;;
81936;SDS011;71432;56.558;9.036;2024-01-06T06:16:09;1.45;;;0.50;;
81936;SDS011;71432;56.558;9.036;2024-01-06T06:18:35;1.67;;;0.80;;
81936;SDS011;71432;56.558;9.036;2024-01-06T06:21:00;1.17;;;0.60;;
81936;SDS011;71432;56.558;9.036;2024-01-06T06:23:32;1.33;;;0.88;;
81936;SDS011;71432;56.558;9.036;2024-01-06T06:25:57;0.95;;;0.60;;
81936;SDS011;71432;56.558;9.036;2024-01-06T06:28:23;1.17;;;0.60;;
81936;SDS011;71432;56.558;9.036;2024-01-06T06:30:48;2.03;;;0.68;;
81936;SDS011;71432;56.558;9.036;2024-01-06T06:33:13;1.10;;;0.55;;
81936;SDS011;71432;56.558;9.036;2024-01-06T06:35:39;1.40;;;0.47;;
81936;SDS011;71432;56.558;9.036;2024-01-06T06:38:04;1.73;;;0.30;;
81936;SDS011;71432;56.558;9.036;2024-01-06T06:40:30;0.90;;;0.50;;
81936;SDS011;71432;56.558;9.036;2024-01-06T06:42:55;1.60;;;0.95;;
81936;SDS011;71432;56.558;9.036;2024-01-06T06:45:20;1.02;;;0.70;;
81936;SDS011;71432;56.558;9.036;2024-01-06T06:47:48;1.40;;;0.60;;
81936;SDS011;71432;56.558;9.036;2024-01-06T06:50:15;1.23;;;0.63;;
81936;SDS011;71432;56.558;9.036;2024-01-06T06:52:41;1.02;;;0.80;;
81936;SDS011;71432;56.558;9.036;2024-01-06T06:55:07;2.05;;;0.60;;
81936;SDS011;71432;56.558;9.036;2024-01-06T06:57:33;1.75;;;0.57;;
81936;SDS011;71432;56.558;9.036;2024-01-06T06:59:58;2.45;;;0.60;;
81936;SDS011;71432;56.558;9.036;2024-01-06T07:02:25;1.10;;;0.77;;
81936;SDS011;71432;56.558;9.036;2024-01-06T07:04:50;1.10;;;0.57;;
81936;SDS011;71432;56.558;9.036;2024-01-06T07:07:16;3.25;;;0.85;;
81936;SDS011;71432;56.558;9.036;2024-01-06T07:09:41;0.73;;;0.40;;
81936;SDS011;71432;56.558;9.036;2024-01-06T07:12:06;1.55;;;0.70;;
81936;SDS011;71432;56.558;9.036;2024-01-06T07:14:33;1.02;;;0.52;;
81936;SDS011;71432;56.558;9.036;2024-01-06T07:16:58;1.13;;;0.60;;
81936;SDS011;71432;56.558;9.036;2024-01-06T07:19:24;0.90;;;0.50;;
81936;SDS011;71432;56.558;9.036;2024-01-06T07:21:49;1.92;;;0.43;;
81936;SDS011;71432;56.558;9.036;2024-01-06T07:24:15;1.13;;;0.50;;
81936;SDS011;71432;56.558;9.036;2024-01-06T07:26:40;1.30;;;0.52;;
81936;SDS011;71432;56.558;9.036;2024-01-06T07:29:05;1.37;;;0.50;;
81936;SDS011;71432;56.558;9.036;2024-01-06T07:31:33;1.08;;;0.52;;
81936;SDS011;71432;56.558;9.036;2024-01-06T07:33:59;0.82;;;0.38;;
81936;SDS011;71432;56.558;9.036;2024-01-06T07:36:24;1.98;;;0.75;;
81936;SDS011;71432;56.558;9.036;2024-01-06T07:38:50;0.95;;;0.60;;
81936;SDS011;71432;56.558;9.036;2024-01-06T07:41:16;1.40;;;0.60;;
81936;SDS011;71432;56.558;9.036;2024-01-06T07:43:42;2.15;;;0.70;;
81936;SDS011;71432;56.558;9.036;2024-01-06T07:46:08;3.88;;;0.68;;
81936;SDS011;71432;56.558;9.036;2024-01-06T07:51:00;0.85;;;0.50;;
81936;SDS011;71432;56.558;9.036;2024-01-06T07:53:26;2.05;;;0.60;;
81936;SDS011;71432;56.558;9.036;2024-01-06T07:55:51;1.10;;;0.70;;
81936;SDS011;71432;56.558;9.036;2024-01-06T07:58:17;1.23;;;0.50;;
81936;SDS011;71432;56.558;9.036;2024-01-06T08:00:42;0.90;;;0.70;;
81936;SDS011;71432;56.558;9.036;2024-01-06T08:03:07;2.20;;;0.80;;
81936;SDS011;71432;56.558;9.036;2024-01-06T08:05:33;1.67;;;0.68;;
81936;SDS011;71432;56.558;9.036;2024-01-06T08:07:58;1.55;;;0.65;;
81936;SDS011;71432;56.558;9.036;2024-01-06T08:10:23;1.03;;;0.50;;
81936;SDS011;71432;56.558;9.036;2024-01-06T08:12:49;1.05;;;0.60;;
81936;SDS011;71432;56.558;9.036;2024-01-06T08:15:14;1.05;;;0.50;;
81936;SDS011;71432;56.558;9.036;2024-01-06T08:17:40;1.23;;;0.75;;
81936;SDS011;71432;56.558;9.036;2024-01-06T08:20:06;1.90;;;0.70;;
81936;SDS011;71432;56.558;9.036;2024-01-06T08:22:33;0.73;;;0.40;;
81936;SDS011;71432;56.558;9.036;2024-01-06T08:24:58;4.18;;;0.60;;
81936;SDS011;71432;56.558;9.036;2024-01-06T08:27:24;0.98;;;0.70;;
81936;SDS011;71432;56.558;9.036;2024-01-06T08:29:49;0.70;;;0.30;;
81936;SDS011;71432;56.558;9.036;2024-01-06T08:32:15;1.75;;;0.60;;
81936;SDS011;71432;56.558;9.036;2024-01-06T08:34:41;1.15;;;0.50;;
81936;SDS011;71432;56.558;9.036;2024-01-06T08:37:07;2.03;;;0.50;;
81936;SDS011;71432;56.558;9.036;2024-01-06T08:39:32;1.83;;;0.60;;
81936;SDS011;71432;56.558;9.036;2024-01-06T08:41:57;1.25;;;0.73;;
81936;SDS011;71432;56.558;9.036;2024-01-06T08:44:23;1.63;;;0.65;;
81936;SDS011;71432;56.558;9.036;2024-01-06T08:46:49;2.85;;;0.70;;
81936;SDS011;71432;56.558;9.036;2024-01-06T08:49:15;4.15;;;0.93;;
81936;SDS011;71432;56.558;9.036;2024-01-06T08:51:40;1.00;;;0.45;;
81936;SDS011;71432;56.558;9.036;2024-01-06T08:54:06;13.05;;;1.35;;
81936;SDS011;71432;56.558;9.036;2024-01-06T08:56:34;1.27;;;0.67;;
81936;SDS011;71432;56.558;9.036;2024-01-06T08:58:59;2.85;;;0.77;;
81936;SDS011;71432;56.558;9.036;2024-01-06T09:01:24;4.47;;;0.60;;
81936;SDS011;71432;56.558;9.036;2024-01-06T09:03:50;3.47;;;0.77;;
81936;SDS011;71432;56.558;9.036;2024-01-06T09:06:15;0.85;;;0.40;;
81936;SDS011;71432;56.558;9.036;2024-01-06T09:08:41;5.25;;;0.80;;
81936;SDS011;71432;56.558;9.036;2024-01-06T09:11:06;2.92;;;0.93;;
81936;SDS011;71432;56.558;9.036;2024-01-06T09:13:32;3.67;;;0.70;;
81936;SDS011;71432;56.558;9.036;2024-01-06T09:15:57;2.10;;;0.50;;
81936;SDS011;71432;56.558;9.036;2024-01-06T09:18:23;3.42;;;0.90;;
81936;SDS011;71432;56.558;9.036;2024-01-06T09:20:49;7.63;;;0.70;;
81936;SDS011;71432;56.558;9.036;2024-01-06T09:23:15;2.88;;;1.52;;
81936;SDS011;71432;56.558;9.036;2024-01-06T09:25:40;1.33;;;0.70;;
81936;SDS011;71432;56.558;9.036;2024-01-06T09:28:06;2.08;;;0.80;;
81936;SDS011;71432;56.558;9.036;2024-01-06T09:30:31;2.50;;;1.13;;
81936;SDS011;71432;56.558;9.036;2024-01-06T09:32:57;4.88;;;0.98;;
81936;SDS011;71432;56.558;9.036;2024-01-06T09:35:23;1.67;;;0.70;;
81936;SDS011;71432;56.558;9.036;2024-01-06T09:37:48;2.20;;;0.60;;
81936;SDS011;71432;56.558;9.036;2024-01-06T09:40:14;2.03;;;0.63;;
81936;SDS011;71432;56.558;9.036;2024-01-06T09:42:46;0.88;;;0.43;;
81936;SDS011;71432;56.558;9.036;2024-01-06T09:45:11;2.60;;;1.00;;
81936;SDS011;71432;56.558;9.036;2024-01-06T09:47:37;4.72;;;1.10;;
81936;SDS011;71432;56.558;9.036;2024-01-06T09:50:06;1.13;;;0.60;;
81936;SDS011;71432;56.558;9.036;2024-01-06T09:52:34;1.92;;;0.90;;
81936;SDS011;71432;56.558;9.036;2024-01-06T09:55:12;4.90;;;0.60;;
81936;SDS011;71432;56.558;9.036;2024-01-06T09:57:38;3.28;;;0.70;;
81936;SDS011;71432;56.558;9.036;2024-01-06T10:00:04;5.90;;;0.82;;
81936;SDS011;71432;56.558;9.036;2024-01-06T10:04:58;10.57;;;0.90;;
81936;SDS011;71432;56.558;9.036;2024-01-06T10:07:25;1.55;;;0.73;;
81936;SDS011;71432;56.558;9.036;2024-01-06T10:09:51;5.93;;;0.85;;
81936;SDS011;71432;56.558;9.036;2024-01-06T10:12:22;1.85;;;0.85;;
81936;SDS011;71432;56.558;9.036;2024-01-06T10:14:49;1.92;;;0.60;;
81936;SDS011;71432;56.558;9.036;2024-01-06T10:17:14;5.37;;;0.90;;
81936;SDS011;71432;56.558;9.036;2024-01-06T10:19:39;1.73;;;0.50;;
81936;SDS011;71432;56.558;9.036;2024-01-06T10:22:05;3.20;;;0.80;;
81936;SDS011;71432;56.558;9.036;2024-01-06T10:24:30;2.42;;;0.70;;
81936;SDS011;71432;56.558;9.036;2024-01-06T10:26:56;1.60;;;0.70;;
81936;SDS011;71432;56.558;9.036;2024-01-06T10:29:22;4.28;;;0.95;;
81936;SDS011;71432;56.558;9.036;2024-01-06T10:31:47;1.80;;;0.70;;
81936;SDS011;71432;56.558;9.036;2024-01-06T10:34:14;7.22;;;0.90;;
81936;SDS011;71432;56.558;9.036;2024-01-06T10:36:39;1.08;;;0.50;;
81936;SDS011;71432;56.558;9.036;2024-01-06T10:39:05;2.35;;;0.93;;
81936;SDS011;71432;56.558;9.036;2024-01-06T10:41:32;3.20;;;0.75;;
81936;SDS011;71432;56.558;9.036;2024-01-06T10:44:00;2.30;;;0.82;;
81936;SDS011;71432;56.558;9.036;2024-01-06T10:46:26;1.40;;;0.65;;
81936;SDS011;71432;56.558;9.036;2024-01-06T10:48:53;2.72;;;0.60;;
81936;SDS011;71432;56.558;9.036;2024-01-06T10:51:21;2.00;;;1.02;;
81936;SDS011;71432;56.558;9.036;2024-01-06T10:53:49;3.33;;;0.93;;
81936;SDS011;71432;56.558;9.036;2024-01-06T10:56:15;1.48;;;0.60;;
81936;SDS011;71432;56.558;9.036;2024-01-06T10:58:45;3.58;;;0.70;;
81936;SDS011;71432;56.558;9.036;2024-01-06T11:01:13;1.65;;;0.70;;
81936;SDS011;71432;56.558;9.036;2024-01-06T11:03:38;1.02;;;0.50;;
81936;SDS011;71432;56.558;9.036;2024-01-06T11:06:05;1.50;;;0.60;;
81936;SDS011;71432;56.558;9.036;2024-01-06T11:08:33;2.33;;;0.70;;
81936;SDS011;71432;56.558;9.036;2024-01-06T11:11:02;1.10;;;0.73;;
81936;SDS011;71432;56.558;9.036;2024-01-06T11:13:29;3.20;;;0.63;;
81936;SDS011;71432;56.558;9.036;2024-01-06T11:15:54;2.20;;;0.90;;
81936;SDS011;71432;56.558;9.036;2024-01-06T11:18:35;1.70;;;0.83;;
81936;SDS011;71432;56.558;9.036;2024-01-06T11:26:47;3.50;;;0.73;;
81936;SDS011;71432;56.558;9.036;2024-01-06T11:29:15;2.00;;;0.80;;
81936;SDS011;71432;56.558;9.036;2024-01-06T11:31:40;1.05;;;0.47;;
81936;SDS011;71432;56.558;9.036;2024-01-06T11:34:12;6.10;;;0.82;;
81936;SDS011;71432;56.558;9.036;2024-01-06T11:36:40;2.13;;;0.63;;
81936;SDS011;71432;56.558;9.036;2024-01-06T11:39:07;5.10;;;0.88;;
81936;SDS011;71432;56.558;9.036;2024-01-06T11:42:00;1.50;;;0.70;;
81936;SDS011;71432;56.558;9.036;2024-01-06T11:44:27;1.92;;;0.73;;
81936;SDS011;71432;56.558;9.036;2024-01-06T11:46:56;1.98;;;0.80;;
81936;SDS011;71432;56.558;9.036;2024-01-06T11:49:24;4.72;;;0.70;;
81936;SDS011;71432;56.558;9.036;2024-01-06T11:51:53;2.53;;;0.70;;
81936;SDS011;71432;56.558;9.036;2024-01-06T11:54:19;1.42;;;0.60;;
81936;SDS011;71432;56.558;9.036;2024-01-06T11:56:45;4.15;;;0.90;;
81936;SDS011;71432;56.558;9.036;2024-01-06T11:59:11;6.07;;;0.80;;
81936;SDS011;71432;56.558;9.036;2024-01-06T12:01:37;2.85;;;0.90;;
81936;SDS011;71432;56.558;9.036;2024-01-06T12:04:03;2.00;;;1.13;;
81936;SDS011;71432;56.558;9.036;2024-01-06T12:06:30;3.25;;;0.90;;
81936;SDS011;71432;56.558;9.036;2024-01-06T12:11:30;1.85;;;1.02;;
81936;SDS011;71432;56.558;9.036;2024-01-06T12:13:55;5.90;;;1.10;;
81936;SDS011;71432;56.558;9.036;2024-01-06T12:16:21;2.80;;;1.00;;
81936;SDS011;71432;56.558;9.036;2024-01-06T12:21:13;3.07;;;0.80;;
81936;SDS011;71432;56.558;9.036;2024-01-06T12:23:38;2.97;;;0.85;;
81936;SDS011;71432;56.558;9.036;2024-01-06T12:26:03;2.85;;;0.82;;
81936;SDS011;71432;56.558;9.036;2024-01-06T12:28:29;1.60;;;0.70;;
81936;SDS011;71432;56.558;9.036;2024-01-06T12:30:54;5.80;;;0.98;;
81936;SDS011;71432;56.558;9.036;2024-01-06T12:33:20;3.97;;;0.60;;
81936;SDS011;71432;56.558;9.036;2024-01-06T12:35:45;1.92;;;0.57;;
81936;SDS011;71432;56.558;9.036;2024-01-06T12:38:10;1.63;;;0.80;;
81936;SDS011;71432;56.558;9.036;2024-01-06T12:40:36;2.28;;;0.77;;
81936;SDS011;71432;56.558;9.036;2024-01-06T12:43:03;2.45;;;0.73;;
81936;SDS011;71432;56.558;9.036;2024-01-06T12:45:31;4.80;;;0.95;;
81936;SDS011;71432;56.558;9.036;2024-01-06T12:47:56;5.00;;;0.90;;
81936;SDS011;71432;56.558;9.036;2024-01-06T12:50:21;3.47;;;1.00;;
81936;SDS011;71432;56.558;9.036;2024-01-06T12:52:46;3.13;;;0.73;;
81936;SDS011;71432;56.558;9.036;2024-01-06T12:55:12;2.42;;;0.93;;
81936;SDS011;71432;56.558;9.036;2024-01-06T12:57:38;3.03;;;0.70;;
81936;SDS011;71432;56.558;9.036;2024-01-06T13:00:03;1.15;;;0.73;;
81936;SDS011;71432;56.558;9.036;2024-01-06T13:02:32;1.10;;;0.60;;
81936;SDS011;71432;56.558;9.036;2024-01-06T13:04:58;1.70;;;0.95;;
81936;SDS011;71432;56.558;9.036;2024-01-06T13:07:23;2.88;;;0.70;;
81936;SDS011;71432;56.558;9.036;2024-01-06T13:09:49;0.80;;;0.52;;
81936;SDS011;71432;56.558;9.036;2024-01-06T13:12:15;1.55;;;0.55;;
81936;SDS011;71432;56.558;9.036;2024-01-06T13:14:40;4.55;;;0.93;;
81936;SDS011;71432;56.558;9.036;2024-01-06T13:17:07;2.63;;;0.63;;
81936;SDS011;71432;56.558;9.036;2024-01-06T13:19:34;1.48;;;0.70;;
81936;SDS011;71432;56.558;9.036;2024-01-06T13:21:59;3.93;;;1.00;;
81936;SDS011;71432;56.558;9.036;2024-01-06T13:24:25;3.95;;;1.05;;
81936;SDS011;71432;56.558;9.036;2024-01-06T13:26:50;2.10;;;1.20;;
81936;SDS011;71432;56.558;9.036;2024-01-06T13:29:15;4.87;;;1.20;;
81936;SDS011;71432;56.558;9.036;2024-01-06T13:31:42;2.38;;;0.95;;
81936;SDS011;71432;56.558;9.036;2024-01-06T13:34:09;2.58;;;1.35;;
81936;SDS011;71432;56.558;9.036;2024-01-06T13:36:34;4.07;;;1.50;;
81936;SDS011;71432;56.558;9.036;2024-01-06T13:38:59;1.30;;;0.80;;
81936;SDS011;71432;56.558;9.036;2024-01-06T13:41:25;3.65;;;1.77;;
81936;SDS011;71432;56.558;9.036;2024-01-06T13:43:50;1.43;;;0.73;;
81936;SDS011;71432;56.558;9.036;2024-01-06T13:46:15;1.95;;;0.98;;
81936;SDS011;71432;56.558;9.036;2024-01-06T13:48:41;8.82;;;1.20;;
81936;SDS011;71432;56.558;9.036;2024-01-06T13:51:07;4.05;;;0.93;;
81936;SDS011;71432;56.558;9.036;2024-01-06T13:53:32;3.55;;;0.95;;
81936;SDS011;71432;56.558;9.036;2024-01-06T13:55:58;2.75;;;0.90;;
81936;SDS011;71432;56.558;9.036;2024-01-06T13:58:23;2.87;;;0.80;;
81936;SDS011;71432;56.558;9.036;2024-01-06T14:00:48;2.15;;;0.70;;
81936;SDS011;71432;56.558;9.036;2024-01-06T14:03:14;2.95;;;0.98;;
81936;SDS011;71432;56.558;9.036;2024-01-06T14:05:39;2.65;;;1.00;;
81936;SDS011;71432;56.558;9.036;2024-01-06T14:08:05;5.47;;;1.00;;
81936;SDS011;71432;56.558;9.036;2024-01-06T14:10:31;1.92;;;0.80;;
81936;SDS011;71432;56.558;9.036;2024-01-06T14:12:56;1.00;;;0.70;;
81936;SDS011;71432;56.558;9.036;2024-01-06T14:15:22;2.33;;;0.88;;
81936;SDS011;71432;56.558;9.036;2024-01-06T14:17:48;1.83;;;0.80;;
81936;SDS011;71432;56.558;9.036;2024-01-06T14:20:15;3.83;;;0.98;;
81936;SDS011;71432;56.558;9.036;2024-01-06T14:22:43;1.00;;;0.75;;
81936;SDS011;71432;56.558;9.036;2024-01-06T14:25:09;1.92;;;0.80;;
81936;SDS011;71432;56.558;9.036;2024-01-06T14:27:34;2.73;;;0.83;;
81936;SDS011;71432;56.558;9.036;2024-01-06T14:29:59;1.90;;;0.70;;
81936;SDS011;71432;56.558;9.036;2024-01-06T14:32:25;2.65;;;1.05;;
81936;SDS011;71432;56.558;9.036;2024-01-06T14:34:50;3.07;;;1.10;;
81936;SDS011;71432;56.558;9.036;2024-01-06T14:37:16;1.80;;;0.90;;
81936;SDS011;71432;56.558;9.036;2024-01-06T14:39:41;0.90;;;0.55;;
81936;SDS011;71432;56.558;9.036;2024-01-06T14:42:07;3.37;;;0.80;;
81936;SDS011;71432;56.558;9.036;2024-01-06T14:44:32;3.17;;;0.75;;
81936;SDS011;71432;56.558;9.036;2024-01-06T14:46:57;1.67;;;0.63;;
81936;SDS011;71432;56.558;9.036;2024-01-06T14:49:23;1.63;;;0.70;;
81936;SDS011;71432;56.558;9.036;2024-01-06T14:51:48;3.60;;;0.98;;
81936;SDS011;71432;56.558;9.036;2024-01-06T14:54:14;1.92;;;0.80;;